Time;durP1;ratioP1;P1;durP2;ratioP2;P2;SDS_P1;SDS_P2;PMS_P1;PMS_P2;Temp;Humidity;BMP_temperature;BMP_pressure;BME280_temperature;BME280_humidity;BME280_pressure;Samples;Min_cycle;Max_cycle;Signal;HPM_P1;HPM_P2
2022/04/20 00:00:08;;;;;;;0.20;0.10;;;27.70;89.30;;;;;;5104341;28;20051;-72
2022/04/20 00:02:35;;;;;;;0.05;0.00;;;28.10;87.90;;;;;;5092117;28;20031;-71
2022/04/20 00:05:12;;;;;;;0.00;0.00;;;28.50;87.00;;;;;;5099569;28;20019;-72
2022/04/20 00:07:39;;;;;;;0.13;0.00;;;28.80;85.40;;;;;;5085419;28;20114;-71
2022/04/20 00:10:07;;;;;;;0.00;0.00;;;28.70;82.70;;;;;;5102287;28;20069;-71
2022/04/20 00:12:34;;;;;;;0.00;0.00;;;28.60;86.80;;;;;;5103704;27;20023;-72
2022/04/20 00:15:02;;;;;;;0.10;0.00;;;28.60;83.90;;;;;;5100838;28;20023;-71
2022/04/20 00:17:29;;;;;;;0.00;0.00;;;28.70;85.20;;;;;;5096023;27;20024;-70
2022/04/20 00:19:56;;;;;;;0.10;0.00;;;28.70;83.60;;;;;;5110516;28;20123;-71
2022/04/20 00:22:24;;;;;;;0.00;0.00;;;29.20;84.00;;;;;;5104728;28;20024;-72
2022/04/20 00:24:51;;;;;;;0.28;0.03;;;29.50;84.90;;;;;;5099667;28;20342;-72
2022/04/20 00:27:19;;;;;;;0.00;0.00;;;29.70;82.00;;;;;;5107182;28;22769;-71
2022/04/20 00:29:46;;;;;;;0.30;0.00;;;29.80;82.30;;;;;;5109514;28;20180;-71
2022/04/20 00:32:14;;;;;;;0.00;0.00;;;29.90;83.80;;;;;;5109502;28;20085;-71
2022/04/20 00:34:41;;;;;;;0.10;0.00;;;30.10;85.90;;;;;;5089414;28;20038;-71
2022/04/20 00:37:08;;;;;;;1.50;0.08;;;30.50;83.30;;;;;;5105315;28;20127;-71
2022/04/20 00:39:37;;;;;;;0.00;0.00;;;30.00;84.40;;;;;;5108654;28;20034;-71
2022/04/20 00:42:05;;;;;;;0.00;0.00;;;30.40;85.00;;;;;;5113935;27;20039;-73
2022/04/20 00:44:32;;;;;;;0.40;0.05;;;30.20;81.90;;;;;;5109487;28;20035;-72
2022/04/20 00:47:01;;;;;;;0.28;0.10;;;30.70;82.40;;;;;;5118134;27;20100;-72
2022/04/20 00:49:30;;;;;;;0.00;0.00;;;30.80;79.80;;;;;;5104395;28;20036;-71
2022/04/20 00:51:58;;;;;;;0.00;0.00;;;30.80;80.10;;;;;;5108294;28;20077;-71
2022/04/20 00:54:26;;;;;;;0.00;0.00;;;30.50;79.20;;;;;;5099453;28;20032;-70
2022/04/20 00:56:54;;;;;;;0.40;0.00;;;29.90;81.10;;;;;;5110835;28;20024;-72
2022/04/20 00:59:24;;;;;;;0.25;0.10;;;29.90;80.80;;;;;;5106897;28;20027;-71
2022/04/20 01:01:52;;;;;;;0.08;0.00;;;30.10;80.30;;;;;;5115268;28;20023;-72
2022/04/20 01:04:20;;;;;;;0.30;0.00;;;30.40;82.10;;;;;;5102270;28;20042;-72
2022/04/20 01:06:49;;;;;;;0.00;0.00;;;30.70;80.40;;;;;;5095465;28;20092;-70
2022/04/20 01:09:17;;;;;;;0.00;0.00;;;31.00;81.10;;;;;;5103426;28;20051;-71
2022/04/20 01:11:44;;;;;;;0.30;0.00;;;31.30;78.40;;;;;;5103329;28;20988;-71
2022/04/20 01:14:13;;;;;;;0.00;0.00;;;30.80;80.50;;;;;;5104776;28;20059;-72
2022/04/20 01:16:40;;;;;;;0.00;0.00;;;30.60;80.70;;;;;;5105287;28;20387;-72
2022/04/20 01:19:07;;;;;;;0.00;0.00;;;30.50;79.80;;;;;;5105652;28;20098;-71
2022/04/20 01:21:35;;;;;;;0.00;0.00;;;30.80;78.70;;;;;;5107649;28;20107;-71
2022/04/20 01:24:02;;;;;;;0.08;0.00;;;30.90;79.50;;;;;;5109949;28;20020;-71
2022/04/20 01:26:29;;;;;;;0.00;0.00;;;31.40;81.60;;;;;;5108829;28;20023;-71
2022/04/20 01:28:58;;;;;;;0.00;0.00;;;31.80;80.50;;;;;;5103292;28;20028;-73
2022/04/20 01:31:26;;;;;;;1.70;0.00;;;32.00;78.70;;;;;;5104417;28;20023;-71
2022/04/20 01:33:53;;;;;;;0.00;0.00;;;32.10;79.20;;;;;;5103483;27;20462;-73
2022/04/20 01:36:20;;;;;;;0.43;0.10;;;32.00;77.10;;;;;;5112118;28;20016;-72
2022/04/20 01:38:48;;;;;;;0.28;0.00;;;32.30;78.20;;;;;;5109297;28;20070;-70
2022/04/20 01:41:15;;;;;;;0.00;0.00;;;32.60;78.10;;;;;;5107524;27;20053;-71
2022/04/20 01:43:43;;;;;;;0.25;0.10;;;32.40;78.60;;;;;;5102303;28;20043;-70
2022/04/20 01:46:10;;;;;;;0.22;0.00;;;32.40;78.50;;;;;;5108415;27;20028;-71
2022/04/20 01:48:37;;;;;;;0.00;0.00;;;32.10;78.90;;;;;;5113349;28;20097;-71
2022/04/20 01:53:50;;;;;;;0.10;0.00;;;32.10;77.40;;;;;;5115486;27;20034;-71
2022/04/20 01:56:17;;;;;;;0.00;0.00;;;32.10;76.20;;;;;;5097266;28;20040;-71
2022/04/20 01:58:45;;;;;;;0.00;0.00;;;32.20;75.90;;;;;;5112711;28;20035;-71
2022/04/20 02:04:02;;;;;;;0.00;0.00;;;32.00;76.70;;;;;;5060216;28;20047;-71
2022/04/20 02:06:30;;;;;;;0.00;0.00;;;31.80;77.20;;;;;;5101815;28;20509;-72
2022/04/20 02:08:57;;;;;;;0.00;0.00;;;31.60;77.20;;;;;;5100529;28;20061;-72
2022/04/20 02:11:25;;;;;;;0.03;0.03;;;30.60;77.00;;;;;;5100023;27;20052;-70
2022/04/20 02:13:52;;;;;;;0.00;0.00;;;30.40;78.20;;;;;;5102367;27;20537;-72
2022/04/20 02:16:19;;;;;;;0.00;0.00;;;29.80;79.60;;;;;;5100024;28;20397;-72
2022/04/20 02:18:47;;;;;;;0.25;0.00;;;30.10;80.90;;;;;;5101990;28;20028;-72
2022/04/20 02:21:14;;;;;;;0.17;0.00;;;30.40;79.10;;;;;;5112334;28;20027;-72
2022/04/20 02:23:42;;;;;;;0.00;0.00;;;30.50;78.20;;;;;;5108606;28;20024;-72
2022/04/20 02:26:09;;;;;;;0.00;0.00;;;30.50;80.50;;;;;;5075497;28;20485;-72
2022/04/20 02:28:37;;;;;;;0.00;0.00;;;31.00;82.60;;;;;;5109404;28;20035;-71
2022/04/20 02:31:04;;;;;;;0.00;0.00;;;31.40;79.30;;;;;;5109646;28;20035;-72
2022/04/20 02:33:31;;;;;;;0.03;0.00;;;31.60;79.60;;;;;;5111511;28;20428;-72
2022/04/20 02:35:59;;;;;;;0.00;0.00;;;31.50;78.00;;;;;;5110603;27;20054;-73
2022/04/20 02:38:28;;;;;;;0.00;0.00;;;31.20;77.20;;;;;;5115968;27;20028;-72
2022/04/20 02:40:56;;;;;;;0.00;0.00;;;31.30;80.80;;;;;;5104141;27;20024;-72
2022/04/20 02:43:23;;;;;;;1.35;0.10;;;31.00;77.80;;;;;;5099989;28;20521;-73
2022/04/20 02:45:51;;;;;;;0.00;0.00;;;30.20;78.10;;;;;;5104320;28;20027;-72
2022/04/20 02:48:18;;;;;;;0.00;0.00;;;30.10;79.40;;;;;;5088482;28;20651;-71
2022/04/20 02:50:46;;;;;;;0.15;0.00;;;30.60;78.00;;;;;;5107754;28;20031;-71
2022/04/20 02:53:13;;;;;;;0.30;0.00;;;30.40;78.40;;;;;;5104422;27;20420;-72
2022/04/20 02:55:42;;;;;;;3.90;0.32;;;30.60;78.90;;;;;;5106497;28;20106;-71
2022/04/20 02:58:09;;;;;;;0.03;0.00;;;30.70;78.30;;;;;;5108365;27;20035;-72
2022/04/20 03:00:37;;;;;;;0.00;0.00;;;30.00;77.80;;;;;;5113310;28;20034;-71
2022/04/20 03:03:05;;;;;;;0.00;0.00;;;30.20;81.70;;;;;;5098596;28;20393;-72
2022/04/20 03:05:32;;;;;;;0.65;0.00;;;30.10;78.50;;;;;;5105453;28;20034;-69
2022/04/20 03:08:00;;;;;;;0.00;0.00;;;29.80;78.40;;;;;;5108335;28;20038;-70
2022/04/20 03:10:27;;;;;;;0.00;0.00;;;29.90;81.30;;;;;;5109126;28;20509;-71
2022/04/20 03:12:55;;;;;;;0.00;0.00;;;30.00;78.80;;;;;;5088796;28;20036;-72
2022/04/20 03:15:22;;;;;;;0.20;0.00;;;30.20;79.80;;;;;;5109210;28;20024;-72
2022/04/20 03:17:49;;;;;;;0.00;0.00;;;30.40;80.40;;;;;;5107270;27;20024;-72
2022/04/20 03:20:17;;;;;;;0.00;0.00;;;30.60;77.70;;;;;;5106620;28;20076;-72
2022/04/20 03:22:44;;;;;;;0.20;0.00;;;30.60;80.70;;;;;;5110932;28;20110;-73
2022/04/20 03:25:11;;;;;;;1.25;0.00;;;30.90;78.70;;;;;;5111207;28;20480;-72
2022/04/20 03:27:39;;;;;;;0.00;0.00;;;30.40;78.60;;;;;;5097628;28;20040;-71
2022/04/20 03:30:07;;;;;;;0.00;0.00;;;29.90;78.60;;;;;;5115353;27;20039;-71
2022/04/20 03:32:36;;;;;;;0.00;0.00;;;29.60;77.00;;;;;;5115135;27;20027;-72
2022/04/20 03:35:03;;;;;;;1.55;0.00;;;29.70;79.90;;;;;;5108197;28;20474;-72
2022/04/20 03:37:32;;;;;;;0.00;0.00;;;29.20;78.70;;;;;;5104408;28;20023;-72
2022/04/20 03:39:59;;;;;;;0.00;0.00;;;28.90;78.80;;;;;;5109655;28;20030;-71
2022/04/20 03:42:27;;;;;;;0.10;0.00;;;28.50;80.60;;;;;;5106072;28;20076;-71
2022/04/20 03:44:55;;;;;;;0.00;0.00;;;28.60;80.70;;;;;;5106541;28;20055;-72
2022/04/20 03:47:22;;;;;;;0.30;0.00;;;28.70;81.20;;;;;;5104801;28;20043;-71
2022/04/20 03:49:49;;;;;;;0.00;0.00;;;28.50;80.10;;;;;;5109181;27;20059;-73
2022/04/20 03:52:17;;;;;;;0.10;0.00;;;28.30;81.50;;;;;;5092802;27;20043;-71
2022/04/20 03:54:44;;;;;;;0.00;0.00;;;28.20;81.10;;;;;;5099101;28;22292;-71
2022/04/20 03:57:11;;;;;;;0.00;0.00;;;28.00;82.40;;;;;;5110166;27;20027;-72
2022/04/20 03:59:39;;;;;;;0.00;0.00;;;28.10;82.20;;;;;;5115356;27;20142;-73
2022/04/20 04:02:07;;;;;;;0.05;0.00;;;28.30;81.50;;;;;;5108589;27;20381;-71
2022/04/20 04:04:35;;;;;;;0.00;0.00;;;28.30;80.40;;;;;;5106831;27;20549;-73
2022/04/20 04:07:03;;;;;;;0.08;0.00;;;28.00;80.90;;;;;;5115446;27;20031;-71
2022/04/20 04:09:30;;;;;;;0.22;0.00;;;28.20;82.20;;;;;;5106116;28;20027;-71
2022/04/20 04:11:58;;;;;;;0.00;0.00;;;28.40;82.30;;;;;;5103247;28;20024;-72
2022/04/20 04:14:25;;;;;;;1.88;0.10;;;28.40;80.20;;;;;;5098919;28;20423;-72
2022/04/20 04:16:52;;;;;;;0.10;0.00;;;28.10;79.30;;;;;;5100128;28;20027;-71
2022/04/20 04:19:20;;;;;;;0.00;0.00;;;28.30;81.90;;;;;;5105852;28;20122;-71
2022/04/20 04:21:48;;;;;;;0.00;0.00;;;28.50;79.80;;;;;;5109108;28;20381;-72
2022/04/20 04:27:03;;;;;;;0.00;0.00;;;28.40;80.10;;;;;;5105944;28;20370;-73
2022/04/20 04:29:31;;;;;;;0.00;0.00;;;28.40;79.40;;;;;;5105538;28;20413;-72
2022/04/20 04:31:59;;;;;;;0.00;0.00;;;28.30;79.40;;;;;;5102400;27;20052;-72
2022/04/20 04:34:27;;;;;;;0.00;0.00;;;28.30;79.50;;;;;;5084624;28;20442;-72
2022/04/20 04:36:55;;;;;;;0.00;0.00;;;28.30;79.10;;;;;;5097594;28;20102;-71
2022/04/20 04:39:23;;;;;;;0.00;0.00;;;28.10;79.00;;;;;;5109350;27;20126;-72
2022/04/20 04:41:51;;;;;;;0.00;0.00;;;28.00;79.10;;;;;;5112643;27;20035;-72
2022/04/20 04:44:21;;;;;;;0.00;0.00;;;28.00;80.10;;;;;;5110196;27;20035;-73
2022/04/20 04:49:33;;;;;;;;;;;27.80;80.30;;;;;;5101259;28;20137;-72
2022/04/20 04:52:01;;;;;;;0.00;0.00;;;27.90;80.30;;;;;;5113756;27;19964;-72
2022/04/20 04:54:28;;;;;;;0.00;0.00;;;27.80;80.40;;;;;;5118587;27;20036;-72
2022/04/20 04:56:56;;;;;;;0.45;0.00;;;27.60;78.80;;;;;;5103410;28;20035;-72
2022/04/20 04:59:23;;;;;;;0.00;0.00;;;27.70;80.50;;;;;;5110609;28;20035;-73
2022/04/20 05:01:50;;;;;;;0.65;0.00;;;27.70;81.20;;;;;;5111845;27;20480;-73
2022/04/20 05:04:19;;;;;;;0.00;0.00;;;27.70;80.60;;;;;;5104185;28;20085;-72
2022/04/20 05:06:47;;;;;;;0.40;0.00;;;27.60;81.50;;;;;;5107715;28;20541;-72
2022/04/20 05:09:14;;;;;;;0.00;0.00;;;27.50;80.70;;;;;;5091734;28;20068;-72
2022/04/20 05:11:42;;;;;;;0.00;0.00;;;27.60;81.00;;;;;;5103339;28;20024;-72
2022/04/20 05:14:13;;;;;;;0.00;0.00;;;27.50;81.20;;;;;;5104428;28;20038;-71
2022/04/20 05:16:41;;;;;;;0.28;0.00;;;27.50;81.10;;;;;;5100111;28;20012;-73
2022/04/20 05:19:09;;;;;;;0.90;0.30;;;27.30;81.30;;;;;;5108460;28;20115;-71
2022/04/20 05:21:36;;;;;;;0.00;0.00;;;27.20;80.00;;;;;;5107034;28;20469;-73
2022/04/20 05:24:05;;;;;;;1.88;0.22;;;27.10;80.60;;;;;;5109687;28;20028;-73
2022/04/20 05:26:32;;;;;;;0.00;0.00;;;27.20;81.80;;;;;;5106503;28;20466;-73
2022/04/20 05:28:59;;;;;;;1.55;0.00;;;27.00;81.20;;;;;;5105320;28;20035;-72
2022/04/20 05:31:27;;;;;;;0.00;0.00;;;27.10;81.10;;;;;;5097823;28;20465;-72
2022/04/20 05:33:54;;;;;;;0.00;0.00;;;27.00;81.40;;;;;;5097912;28;20048;-72
2022/04/20 05:36:21;;;;;;;0.08;0.00;;;27.00;81.40;;;;;;5104838;28;20016;-72
2022/04/20 05:41:40;;;;;;;0.00;0.00;;;27.10;81.50;;;;;;5100523;28;20035;-72
2022/04/20 05:44:15;;;;;;;0.00;0.00;;;27.00;80.50;;;;;;5106345;28;20019;-73
2022/04/20 05:46:42;;;;;;;0.08;0.00;;;27.00;81.70;;;;;;5107757;28;20028;-72
2022/04/20 05:49:10;;;;;;;0.52;0.00;;;27.10;81.00;;;;;;5100391;28;20088;-71
2022/04/20 05:51:37;;;;;;;0.32;0.00;;;26.90;80.80;;;;;;5106930;28;20043;-73
2022/04/20 05:54:04;;;;;;;0.10;0.00;;;26.90;80.60;;;;;;5099954;28;20046;-72
2022/04/20 05:56:32;;;;;;;0.10;0.00;;;26.90;80.20;;;;;;5102588;28;20068;-72
2022/04/20 05:59:00;;;;;;;0.00;0.00;;;26.80;81.00;;;;;;5108249;28;20101;-72
2022/04/20 06:01:27;;;;;;;0.00;0.00;;;26.70;79.40;;;;;;5106425;28;20026;-72
2022/04/20 06:03:55;;;;;;;0.03;0.00;;;26.70;79.60;;;;;;5093480;28;20057;-71
2022/04/20 06:06:23;;;;;;;0.00;0.00;;;26.80;82.00;;;;;;5096891;28;20719;-73
2022/04/20 06:08:50;;;;;;;0.17;0.00;;;26.80;80.60;;;;;;5109874;27;20415;-72
2022/04/20 06:11:18;;;;;;;0.10;0.08;;;26.80;80.30;;;;;;5106587;27;20447;-72
2022/04/20 06:13:46;;;;;;;0.03;0.00;;;26.90;80.10;;;;;;5102784;27;20382;-72
2022/04/20 06:16:13;;;;;;;0.20;0.00;;;26.80;79.00;;;;;;5106111;27;20485;-73
2022/04/20 06:18:40;;;;;;;0.30;0.00;;;26.70;78.90;;;;;;5111179;28;20042;-73
2022/04/20 06:21:08;;;;;;;0.00;0.00;;;26.60;78.00;;;;;;5117474;27;20101;-71
2022/04/20 06:23:35;;;;;;;0.00;0.00;;;26.50;78.60;;;;;;5134308;27;20038;-71
2022/04/20 06:26:03;;;;;;;0.00;0.00;;;26.50;78.50;;;;;;5115701;27;20016;-71
2022/04/20 06:28:30;;;;;;;0.00;0.00;;;26.30;79.20;;;;;;5101739;27;20423;-71
2022/04/20 06:30:57;;;;;;;0.00;0.00;;;26.10;78.50;;;;;;5099151;27;20394;-71
2022/04/20 06:33:25;;;;;;;0.00;0.00;;;26.00;78.40;;;;;;5100203;28;20028;-72
2022/04/20 06:35:53;;;;;;;0.05;0.00;;;25.80;78.80;;;;;;5098803;28;20137;-72
2022/04/20 06:38:22;;;;;;;3.20;0.00;;;25.70;79.90;;;;;;5100854;27;20081;-72
2022/04/20 06:40:50;;;;;;;0.10;0.00;;;25.60;78.40;;;;;;5100563;28;20223;-72
2022/04/20 06:43:17;;;;;;;0.08;0.00;;;25.30;78.20;;;;;;5105414;28;20027;-72
2022/04/20 06:45:44;;;;;;;0.22;0.00;;;25.20;78.90;;;;;;5107441;27;20054;-72
2022/04/20 06:48:12;;;;;;;0.20;0.00;;;25.00;78.90;;;;;;5098894;27;20094;-73
2022/04/20 06:50:42;;;;;;;0.20;0.00;;;24.90;77.40;;;;;;5104849;27;20031;-70
2022/04/20 06:58:41;;;;;;;0.20;0.00;;;24.60;76.90;;;;;;5103369;28;20119;-71
2022/04/20 07:01:10;;;;;;;0.10;0.00;;;24.40;75.60;;;;;;5104264;27;20046;-70
2022/04/20 07:03:38;;;;;;;0.35;0.10;;;24.20;76.20;;;;;;5098692;28;20028;-70
2022/04/20 07:06:05;;;;;;;0.00;0.00;;;24.10;77.00;;;;;;5099569;28;20034;-72
2022/04/20 07:08:34;;;;;;;0.57;0.00;;;23.90;77.10;;;;;;5099502;27;20620;-72
2022/04/20 07:11:02;;;;;;;0.00;0.00;;;23.70;78.40;;;;;;5097752;28;20035;-72
2022/04/20 07:13:29;;;;;;;0.00;0.00;;;23.60;78.30;;;;;;5099578;28;20019;-73
2022/04/20 07:15:57;;;;;;;0.20;0.03;;;23.40;79.10;;;;;;5105606;28;20448;-72
2022/04/20 07:18:24;;;;;;;0.60;0.20;;;23.40;79.90;;;;;;5098886;27;20056;-71
2022/04/20 07:20:53;;;;;;;0.63;0.30;;;23.30;79.70;;;;;;5081214;28;20032;-72
2022/04/20 07:23:21;;;;;;;0.57;0.40;;;23.10;78.80;;;;;;5110701;27;20020;-72
2022/04/20 07:25:48;;;;;;;0.65;0.30;;;23.00;79.30;;;;;;5114892;27;20036;-73
2022/04/20 07:28:15;;;;;;;4.85;1.08;;;22.90;80.70;;;;;;5106493;28;20024;-71
2022/04/20 07:30:43;;;;;;;0.93;0.10;;;22.80;81.40;;;;;;5100979;28;20500;-72
2022/04/20 07:33:10;;;;;;;1.08;0.20;;;22.70;80.80;;;;;;5106668;27;20031;-72
2022/04/20 07:35:37;;;;;;;0.20;0.15;;;22.50;81.90;;;;;;5109916;27;20020;-72
2022/04/20 07:38:05;;;;;;;0.30;0.20;;;22.40;81.10;;;;;;5109989;27;20064;-72
2022/04/20 07:40:32;;;;;;;1.85;0.15;;;22.20;80.60;;;;;;5111908;28;20024;-72
2022/04/20 07:42:59;;;;;;;1.40;0.00;;;22.20;81.60;;;;;;5118519;27;20062;-70
2022/04/20 07:45:27;;;;;;;0.55;0.10;;;22.10;82.10;;;;;;5112175;28;20513;-72
2022/04/20 07:47:55;;;;;;;0.73;0.10;;;22.00;83.00;;;;;;5109696;27;20047;-71
2022/04/20 07:50:24;;;;;;;0.90;0.40;;;22.00;83.70;;;;;;5104599;27;20215;-72
2022/04/20 07:52:56;;;;;;;0.73;0.20;;;21.90;84.00;;;;;;5107659;27;20027;-71
2022/04/20 07:55:27;;;;;;;0.10;0.00;;;21.80;84.70;;;;;;5108476;28;20028;-71
2022/04/20 07:58:00;;;;;;;0.43;0.10;;;21.70;85.40;;;;;;5106178;28;20374;-73
2022/04/20 08:00:27;;;;;;;0.25;0.10;;;21.60;86.20;;;;;;5110125;28;20058;-71
2022/04/20 08:03:14;;;;;;;0.30;0.30;;;21.50;86.60;;;;;;5109967;27;20027;-73
2022/04/20 08:05:43;;;;;;;0.30;0.20;;;21.30;84.80;;;;;;5103876;28;20027;-73
2022/04/20 08:08:11;;;;;;;1.92;0.60;;;21.20;85.60;;;;;;5103384;27;20101;-74
2022/04/20 08:10:39;;;;;;;1.30;0.50;;;21.20;86.20;;;;;;5107867;28;20115;-71
2022/04/20 08:15:52;;;;;;;1.15;0.80;;;21.10;89.20;;;;;;5105199;27;20118;-71
2022/04/20 08:18:19;;;;;;;1.40;0.73;;;21.00;89.90;;;;;;5104109;27;20365;-72
2022/04/20 08:20:47;;;;;;;2.55;0.68;;;20.80;90.00;;;;;;5102882;28;20064;-71
2022/04/20 08:23:15;;;;;;;1.77;0.50;;;20.70;90.00;;;;;;5093779;28;20034;-72
2022/04/20 08:25:43;;;;;;;2.97;0.50;;;20.60;90.10;;;;;;5096136;28;20422;-74
2022/04/20 08:28:11;;;;;;;0.75;0.40;;;20.50;89.90;;;;;;5098242;28;20024;-70
2022/04/20 08:30:40;;;;;;;1.23;0.35;;;20.40;89.10;;;;;;5096927;28;20040;-71
2022/04/20 08:33:08;;;;;;;2.95;1.02;;;20.40;88.30;;;;;;5104497;28;20047;-71
2022/04/20 08:35:36;;;;;;;2.45;1.08;;;20.30;88.60;;;;;;5108932;28;20473;-71
2022/04/20 08:38:04;;;;;;;1.67;0.60;;;20.30;89.80;;;;;;5106789;28;20027;-72
2022/04/20 08:40:33;;;;;;;0.98;0.43;;;20.30;90.40;;;;;;5105035;28;20035;-72
2022/04/20 08:43:05;;;;;;;1.90;0.80;;;20.30;90.90;;;;;;5093906;27;20035;-71
2022/04/20 08:45:37;;;;;;;1.00;0.40;;;20.20;91.30;;;;;;5095172;28;20016;-73
2022/04/20 08:48:06;;;;;;;0.93;0.47;;;20.10;91.60;;;;;;5107240;27;20066;-73
2022/04/20 08:50:35;;;;;;;2.22;0.60;;;20.00;91.50;;;;;;5065275;28;20058;-73
2022/04/20 08:53:03;;;;;;;2.40;0.82;;;19.80;92.10;;;;;;5098761;28;20023;-71
2022/04/20 08:55:31;;;;;;;2.22;1.60;;;19.70;92.50;;;;;;5107425;28;20115;-72
2022/04/20 08:57:59;;;;;;;9.52;1.48;;;19.60;92.50;;;;;;5103743;28;20028;-73
2022/04/20 09:00:27;;;;;;;2.75;0.85;;;19.50;92.10;;;;;;5108146;28;20016;-73
2022/04/20 09:03:00;;;;;;;2.17;0.93;;;19.40;92.10;;;;;;5100495;28;20032;-71
2022/04/20 09:05:30;;;;;;;3.10;0.88;;;19.40;91.70;;;;;;5108727;28;20427;-71
2022/04/20 09:08:10;;;;;;;2.67;0.90;;;19.40;91.40;;;;;;5105553;28;20030;-72
2022/04/20 09:10:38;;;;;;;4.45;0.65;;;19.30;91.10;;;;;;5101780;28;20077;-72
2022/04/20 09:13:11;;;;;;;1.10;0.30;;;19.40;90.20;;;;;;5097572;28;20038;-72
2022/04/20 09:15:40;;;;;;;1.27;0.28;;;19.40;90.10;;;;;;5099647;28;20474;-73
2022/04/20 09:18:10;;;;;;;1.00;0.20;;;19.40;89.50;;;;;;5100612;28;20023;-72
2022/04/20 09:20:40;;;;;;;2.78;0.30;;;19.30;89.40;;;;;;5109256;28;20089;-72
2022/04/20 09:23:14;;;;;;;2.53;0.20;;;19.30;87.30;;;;;;5111186;28;20035;-70
2022/04/20 09:25:49;;;;;;;1.80;0.20;;;19.30;87.60;;;;;;5106640;28;20466;-70
2022/04/20 09:28:16;;;;;;;0.45;0.20;;;19.20;88.00;;;;;;5110902;28;20031;-70
2022/04/20 09:30:44;;;;;;;0.40;0.30;;;19.20;88.60;;;;;;5111089;28;20115;-70
2022/04/20 09:33:15;;;;;;;1.13;0.30;;;19.10;88.70;;;;;;5105801;28;20024;-71
2022/04/20 09:35:53;;;;;;;0.38;0.20;;;19.10;88.70;;;;;;5100637;28;20122;-70
2022/04/20 09:38:22;;;;;;;0.40;0.25;;;19.10;88.50;;;;;;5100551;28;20063;-70
2022/04/20 09:40:51;;;;;;;0.32;0.10;;;19.00;88.90;;;;;;5085808;28;20031;-70
2022/04/20 09:43:21;;;;;;;0.65;0.30;;;18.90;88.60;;;;;;5110448;28;20029;-73
2022/04/20 09:49:11;;;;;;;1.17;0.20;;;18.90;90.00;;;;;;5104075;28;20082;-70
2022/04/20 09:51:42;;;;;;;0.50;0.20;;;18.80;89.50;;;;;;5106357;27;20469;-69
2022/04/20 09:54:29;;;;;;;0.45;0.20;;;18.80;89.20;;;;;;5114249;28;20362;-71
2022/04/20 09:57:13;;;;;;;1.30;0.50;;;18.70;89.40;;;;;;5110675;28;20126;-71
2022/04/20 10:00:00;;;;;;;0.95;0.35;;;18.60;90.00;;;;;;5109159;28;20019;-70
2022/04/20 10:02:29;;;;;;;2.45;0.60;;;18.50;90.60;;;;;;5118630;27;20032;-71
2022/04/20 10:04:57;;;;;;;1.52;0.85;;;18.40;91.80;;;;;;5098694;28;20031;-71
2022/04/20 10:07:25;;;;;;;3.95;0.98;;;18.20;92.40;;;;;;5100486;28;20031;-69
2022/04/20 10:09:53;;;;;;;1.92;0.70;;;18.10;93.10;;;;;;5101091;28;20044;-70
2022/04/20 10:12:21;;;;;;;1.15;0.50;;;18.20;93.30;;;;;;5096222;27;20035;-69
2022/04/20 10:17:44;;;;;;;1.67;0.57;;;18.50;93.00;;;;;;5110110;27;20027;-71
2022/04/20 10:20:13;;;;;;;1.48;1.15;;;18.50;92.70;;;;;;5099122;28;20020;-70
2022/04/20 10:22:44;;;;;;;0.80;0.40;;;18.40;92.60;;;;;;5098970;27;20032;-69
2022/04/20 10:25:13;;;;;;;0.60;0.40;;;18.30;92.90;;;;;;5110863;28;20104;-71
2022/04/20 10:27:58;;;;;;;0.40;0.30;;;18.20;93.00;;;;;;5116014;27;20122;-72
2022/04/20 10:30:43;;;;;;;0.60;0.33;;;18.10;93.40;;;;;;5101809;27;20473;-70
2022/04/20 10:33:20;;;;;;;1.02;0.40;;;18.10;93.10;;;;;;5114276;27;20019;-69
2022/04/20 10:35:59;;;;;;;0.73;0.50;;;17.90;93.20;;;;;;5108695;28;20031;-70
2022/04/20 10:38:30;;;;;;;0.90;0.25;;;17.80;93.50;;;;;;5097965;28;20123;-69
2022/04/20 10:41:18;;;;;;;0.68;0.40;;;17.70;93.90;;;;;;5106151;28;20036;-69
2022/04/20 10:43:46;;;;;;;0.60;0.30;;;17.80;93.70;;;;;;5111622;28;20152;-70
2022/04/20 10:46:20;;;;;;;2.28;0.57;;;17.70;93.70;;;;;;5112550;27;20024;-71
2022/04/20 10:48:49;;;;;;;0.10;0.10;;;17.50;93.60;;;;;;5092885;28;20048;-70
2022/04/20 10:51:35;;;;;;;2.13;0.75;;;17.40;93.50;;;;;;5108433;27;20046;-68
2022/04/20 10:54:34;;;;;;;0.22;0.20;;;17.40;93.90;;;;;;5103774;27;20146;-69
2022/04/20 10:57:07;;;;;;;0.40;0.20;;;17.30;93.70;;;;;;5113720;27;20035;-70
2022/04/20 10:59:34;;;;;;;2.58;0.20;;;17.30;93.50;;;;;;5114768;27;20039;-69
2022/04/20 11:02:06;;;;;;;0.35;0.20;;;17.20;93.60;;;;;;5101079;28;20031;-70
2022/04/20 11:04:50;;;;;;;0.73;0.40;;;17.20;93.70;;;;;;5092328;28;20024;-71
2022/04/20 11:07:23;;;;;;;0.60;0.20;;;17.30;94.20;;;;;;5097205;28;20533;-71
2022/04/20 11:09:59;;;;;;;2.42;0.38;;;17.30;94.10;;;;;;5128595;27;20137;-71
2022/04/20 11:18:39;;;;;;;10.88;0.90;;;17.30;94.50;;;;;;5007529;28;20057;-71
2022/04/20 11:21:06;;;;;;;5.10;0.50;;;17.30;95.00;;;;;;5108085;27;20044;-69
2022/04/20 11:23:59;;;;;;;0.10;0.10;;;17.20;94.80;;;;;;5104237;28;20039;-69
2022/04/20 11:26:34;;;;;;;0.28;0.20;;;17.00;95.20;;;;;;5104767;28;20023;-70
2022/04/20 11:29:23;;;;;;;0.15;0.10;;;17.00;95.20;;;;;;5108047;28;20078;-70
2022/04/20 11:31:57;;;;;;;0.55;0.50;;;17.00;95.40;;;;;;5110274;27;20107;-73
2022/04/20 11:34:28;;;;;;;0.57;0.22;;;16.90;95.50;;;;;;5113883;27;20358;-73
2022/04/20 11:37:00;;;;;;;0.22;0.20;;;16.70;95.60;;;;;;5109648;27;20435;-72
2022/04/20 11:39:29;;;;;;;0.70;0.20;;;16.60;95.90;;;;;;5109329;27;20110;-72
2022/04/20 11:41:58;;;;;;;1.00;0.30;;;16.40;96.20;;;;;;5103149;27;20532;-72
2022/04/20 11:44:31;;;;;;;3.95;1.30;;;16.30;96.80;;;;;;5090987;27;20028;-73
2022/04/20 11:47:07;;;;;;;0.68;0.40;;;16.10;97.20;;;;;;5099839;28;20110;-72
2022/04/20 11:49:39;;;;;;;;;;;16.00;97.30;;;;;;5104602;27;20057;-74
2022/04/20 11:52:09;;;;;;;0.50;0.20;;;15.90;97.30;;;;;;5102708;27;19911;-73
2022/04/20 11:54:38;;;;;;;0.30;0.20;;;15.90;96.90;;;;;;5102390;28;20031;-72
2022/04/20 11:57:12;;;;;;;2.28;0.17;;;15.80;96.40;;;;;;5107277;28;20474;-72
2022/04/20 11:59:47;;;;;;;1.85;0.20;;;15.80;96.30;;;;;;5103485;27;20042;-73
2022/04/20 12:02:15;;;;;;;0.90;0.20;;;15.90;96.10;;;;;;5103813;28;20402;-73
2022/04/20 12:04:44;;;;;;;1.92;0.30;;;15.90;95.70;;;;;;5107247;28;20035;-72
2022/04/20 12:07:11;;;;;;;1.92;0.60;;;15.90;95.90;;;;;;5087722;28;20535;-73
2022/04/20 12:09:42;;;;;;;2.05;0.30;;;15.90;95.60;;;;;;5106871;28;20122;-72
2022/04/20 12:12:12;;;;;;;1.70;0.20;;;15.90;95.60;;;;;;5101203;27;20028;-74
2022/04/20 12:14:41;;;;;;;0.75;0.20;;;15.90;95.60;;;;;;5105086;27;20042;-72
2022/04/20 12:17:10;;;;;;;1.10;0.17;;;15.90;95.60;;;;;;5116184;27;20019;-74
2022/04/20 12:19:40;;;;;;;0.85;0.20;;;15.90;95.70;;;;;;5116710;27;20064;-74
2022/04/20 12:22:12;;;;;;;0.82;0.20;;;15.90;95.60;;;;;;5105234;27;20023;-75
2022/04/20 12:24:41;;;;;;;1.30;0.30;;;15.90;95.60;;;;;;5102592;28;20024;-73
2022/04/20 12:27:24;;;;;;;0.68;0.35;;;15.90;95.70;;;;;;5107462;27;20500;-74
2022/04/20 12:29:56;;;;;;;0.88;0.28;;;15.80;95.70;;;;;;5105615;27;20055;-74
2022/04/20 12:32:33;;;;;;;0.15;0.15;;;15.80;95.80;;;;;;5101200;28;20032;-73
2022/04/20 12:35:05;;;;;;;0.20;0.08;;;15.70;95.90;;;;;;5095245;28;20470;-74
2022/04/20 12:37:35;;;;;;;0.85;0.25;;;15.70;96.50;;;;;;5105299;28;20023;-74
2022/04/20 12:40:27;;;;;;;2.00;0.10;;;15.70;96.30;;;;;;5104363;28;20028;-72
2022/04/20 12:43:09;;;;;;;1.20;0.10;;;15.60;96.50;;;;;;5095894;27;20027;-73
2022/04/20 12:45:37;;;;;;;1.88;0.52;;;15.60;96.60;;;;;;5097958;28;20236;-73
2022/04/20 12:48:11;;;;;;;1.08;0.28;;;15.50;96.60;;;;;;5098611;28;20135;-72
2022/04/20 12:50:46;;;;;;;0.28;0.20;;;15.50;96.60;;;;;;5102125;28;20502;-73
2022/04/20 12:53:13;;;;;;;0.20;0.17;;;15.50;96.60;;;;;;5097131;28;20409;-75
2022/04/20 12:55:42;;;;;;;0.25;0.15;;;15.40;96.60;;;;;;5108923;28;20037;-73
2022/04/20 13:03:48;;;;;;;;;;;15.30;96.90;;;;;;5106707;28;20184;-75
2022/04/20 13:06:15;;;;;;;0.52;0.20;;;15.30;97.20;;;;;;5092970;28;19970;-72
2022/04/20 13:08:46;;;;;;;0.10;0.10;;;15.20;97.60;;;;;;5108172;28;20381;-72
2022/04/20 13:11:15;;;;;;;0.77;0.25;;;15.10;97.50;;;;;;5109968;28;20031;-72
2022/04/20 13:13:43;;;;;;;0.10;0.10;;;15.10;97.90;;;;;;5098305;28;20031;-71
2022/04/20 13:16:10;;;;;;;0.22;0.22;;;15.00;98.00;;;;;;5101458;27;20390;-74
2022/04/20 13:18:39;;;;;;;0.20;0.17;;;14.90;98.20;;;;;;5102027;28;20390;-73
2022/04/20 13:21:06;;;;;;;0.20;0.10;;;14.90;98.10;;;;;;5108490;28;20032;-74
2022/04/20 13:23:35;;;;;;;0.10;0.10;;;14.90;98.20;;;;;;5101419;28;20112;-75
2022/04/20 13:28:48;;;;;;;2.03;0.20;;;14.80;97.50;;;;;;5099363;28;21006;-74
2022/04/20 13:31:17;;;;;;;0.55;0.20;;;14.90;97.00;;;;;;5098885;28;20023;-75
2022/04/20 13:33:46;;;;;;;0.43;0.25;;;15.00;96.90;;;;;;5100024;27;20510;-74
2022/04/20 13:36:13;;;;;;;0.20;0.10;;;15.00;96.80;;;;;;5101624;27;20020;-74
2022/04/20 13:38:41;;;;;;;2.40;1.00;;;15.00;96.80;;;;;;5117062;27;20089;-74
2022/04/20 13:41:08;;;;;;;0.13;0.10;;;15.00;96.80;;;;;;5100982;28;20490;-73